Time;durP1;ratioP1;P1;durP2;ratioP2;P2;SDS_P1;SDS_P2;PMS_P1;PMS_P2;Temp;Humidity;BMP_temperature;BMP_pressure;BME280_temperature;BME280_humidity;BME280_pressure;Samples;Min_cycle;Max_cycle;Signal;HPM_P1;HPM_P2
2021/12/02 00:01:29;;;;;;;1.40;1.30;;;4.00;99.90;;;;;;5007471;28;20485;-60
2021/12/02 00:03:55;;;;;;;1.40;1.30;;;4.00;99.90;;;;;;5008662;28;20443;-60
2021/12/02 00:06:22;;;;;;;2.50;1.30;;;4.00;99.90;;;;;;5006889;28;20544;-59
2021/12/02 00:08:49;;;;;;;2.60;1.60;;;4.00;99.90;;;;;;5008377;28;20466;-61
2021/12/02 00:11:16;;;;;;;38.60;13.40;;;4.00;99.90;;;;;;5008470;28;20434;-60
2021/12/02 00:16:27;;;;;;;5.77;3.07;;;4.10;99.90;;;;;;5007973;28;20442;-60
2021/12/02 00:21:25;;;;;;;3.03;2.20;;;4.00;99.90;;;;;;5008023;28;21007;-61
2021/12/02 00:23:50;;;;;;;1.67;1.57;;;4.10;99.90;;;;;;5008271;28;20196;-61
2021/12/02 00:26:18;;;;;;;1.53;1.43;;;4.10;99.90;;;;;;5005061;28;20847;-60
2021/12/02 00:28:43;;;;;;;1.40;1.30;;;4.00;99.90;;;;;;5006622;28;20183;-61
2021/12/02 00:31:15;;;;;;;1.53;1.30;;;4.10;99.90;;;;;;5008487;28;20541;-60
2021/12/02 00:33:45;;;;;;;3.27;2.67;;;4.10;99.90;;;;;;5006574;28;20199;-60
2021/12/02 00:36:13;;;;;;;2.60;1.70;;;4.00;99.90;;;;;;5006182;28;20426;-60
2021/12/02 00:38:41;;;;;;;2.50;1.63;;;4.10;99.90;;;;;;5008893;28;20399;-61
2021/12/02 00:41:16;;;;;;;4.63;2.67;;;4.00;99.90;;;;;;5008169;28;20412;-60
2021/12/02 00:43:44;;;;;;;1.77;1.63;;;4.10;99.90;;;;;;5008050;28;20999;-61
2021/12/02 00:46:12;;;;;;;2.30;2.10;;;4.10;99.90;;;;;;5006620;28;20452;-60
2021/12/02 00:48:38;;;;;;;1.77;1.67;;;4.00;99.90;;;;;;5008160;28;20431;-60
2021/12/02 00:51:05;;;;;;;2.43;1.90;;;4.00;99.90;;;;;;5008102;28;20504;-61
2021/12/02 00:53:33;;;;;;;2.67;2.13;;;4.00;99.90;;;;;;5008733;28;20450;-60
2021/12/02 00:56:03;;;;;;;2.30;2.10;;;4.00;99.90;;;;;;5008615;28;20555;-60
2021/12/02 00:58:30;;;;;;;1.30;1.17;;;4.00;99.90;;;;;;5006186;28;20450;-59
2021/12/02 01:00:57;;;;;;;1.70;1.60;;;4.00;99.90;;;;;;5007073;28;20903;-60
2021/12/02 01:03:26;;;;;;;1.30;1.20;;;4.00;99.90;;;;;;5008222;28;20494;-60
2021/12/02 01:05:52;;;;;;;1.27;1.10;;;3.90;99.90;;;;;;5010586;28;20459;-60
2021/12/02 01:08:19;;;;;;;1.70;1.50;;;3.90;99.90;;;;;;5007745;28;20474;-60
2021/12/02 01:10:45;;;;;;;2.70;2.03;;;3.90;99.90;;;;;;5008278;28;20481;-60
2021/12/02 01:13:11;;;;;;;1.47;1.30;;;3.90;99.90;;;;;;5009175;28;20431;-60
2021/12/02 01:15:37;;;;;;;1.10;1.00;;;3.90;99.90;;;;;;5006908;28;20427;-60
2021/12/02 01:18:03;;;;;;;1.47;1.10;;;3.90;99.90;;;;;;5014033;28;20671;-60
2021/12/02 01:20:31;;;;;;;1.07;1.00;;;3.90;99.90;;;;;;5009736;28;20430;-61
2021/12/02 01:23:00;;;;;;;3.17;1.30;;;3.90;99.90;;;;;;5008580;28;20442;-60
2021/12/02 01:25:30;;;;;;;1.00;0.90;;;3.90;99.90;;;;;;5010836;28;20809;-61
2021/12/02 01:27:57;;;;;;;1.43;1.33;;;3.90;99.90;;;;;;5003483;28;20469;-60
2021/12/02 01:30:28;;;;;;;1.30;1.20;;;3.90;99.90;;;;;;5010006;28;20462;-60
2021/12/02 01:33:01;;;;;;;1.00;1.00;;;4.00;99.90;;;;;;5012612;28;20963;-61
2021/12/02 01:35:28;;;;;;;2.57;1.23;;;3.90;99.90;;;;;;5010460;28;20581;-60
2021/12/02 01:37:55;;;;;;;1.07;0.90;;;3.90;99.90;;;;;;5008789;28;20525;-61
2021/12/02 01:40:21;;;;;;;1.00;1.00;;;3.90;99.90;;;;;;5007668;28;20429;-60
2021/12/02 01:42:50;;;;;;;1.40;1.30;;;3.90;99.90;;;;;;5011064;28;20482;-60
2021/12/02 01:45:19;;;;;;;1.13;1.00;;;3.90;99.90;;;;;;5011582;28;20949;-60
2021/12/02 01:47:48;;;;;;;0.93;0.93;;;3.80;99.90;;;;;;5008581;28;20431;-60
2021/12/02 01:50:20;;;;;;;1.10;1.00;;;3.80;99.90;;;;;;5009657;28;20488;-60
2021/12/02 01:52:58;;;;;;;1.97;1.20;;;3.80;99.90;;;;;;5024596;28;20522;-60
2021/12/02 01:55:26;;;;;;;1.23;1.10;;;3.80;99.90;;;;;;5009304;28;20450;-60
2021/12/02 01:58:04;;;;;;;0.93;0.90;;;3.80;99.90;;;;;;5007789;28;20434;-62
2021/12/02 02:00:44;;;;;;;0.90;0.90;;;3.70;99.90;;;;;;5015396;28;20427;-61
2021/12/02 02:03:11;;;;;;;1.33;1.07;;;3.70;99.90;;;;;;5025459;28;20435;-66
2021/12/02 02:05:38;;;;;;;1.30;1.30;;;3.70;99.90;;;;;;5028051;28;20489;-61
2021/12/02 02:08:21;;;;;;;1.10;1.10;;;3.70;99.90;;;;;;5008684;28;20829;-60
2021/12/02 02:10:48;;;;;;;2.30;1.63;;;3.60;99.90;;;;;;5009210;28;20538;-60
2021/12/02 02:13:15;;;;;;;1.37;1.20;;;3.60;99.90;;;;;;5009586;28;20427;-60
2021/12/02 02:15:45;;;;;;;1.13;1.10;;;3.50;99.90;;;;;;5009804;28;20502;-60
2021/12/02 02:18:21;;;;;;;2.50;1.77;;;3.50;99.90;;;;;;5027231;22;20502;-58
2021/12/02 02:20:58;;;;;;;1.50;1.40;;;3.50;99.90;;;;;;5003094;28;20415;-61
2021/12/02 02:23:25;;;;;;;1.30;1.20;;;3.50;99.90;;;;;;4989416;28;20443;-56
2021/12/02 02:25:51;;;;;;;1.10;1.00;;;3.50;99.90;;;;;;4988613;28;20431;-59
2021/12/02 02:28:17;;;;;;;1.00;1.00;;;3.50;99.90;;;;;;4991023;28;20587;-59
2021/12/02 02:30:42;;;;;;;1.00;1.00;;;3.50;99.90;;;;;;4988067;28;20197;-59
2021/12/02 02:33:11;;;;;;;1.17;1.17;;;3.50;99.90;;;;;;4993441;28;20192;-57
2021/12/02 02:35:37;;;;;;;1.40;1.30;;;3.50;99.90;;;;;;4984465;28;20168;-57
2021/12/02 02:38:04;;;;;;;1.40;1.30;;;3.50;99.90;;;;;;4989128;28;20457;-59
2021/12/02 02:40:31;;;;;;;1.20;1.20;;;3.50;99.90;;;;;;4986371;28;20523;-59
2021/12/02 02:43:04;;;;;;;0.90;0.90;;;3.50;99.90;;;;;;4983598;28;20447;-58
2021/12/02 02:45:30;;;;;;;0.90;0.90;;;3.50;99.90;;;;;;4977669;28;21166;-58
2021/12/02 02:47:55;;;;;;;1.27;1.00;;;3.50;99.90;;;;;;4988236;28;20456;-58
2021/12/02 02:50:21;;;;;;;1.73;1.40;;;3.50;99.90;;;;;;4987298;28;20324;-59
2021/12/02 02:52:47;;;;;;;1.73;1.10;;;3.50;99.90;;;;;;4987473;28;20710;-59
2021/12/02 02:55:22;;;;;;;0.97;0.97;;;3.50;99.90;;;;;;4988782;28;20316;-58
2021/12/02 02:58:04;;;;;;;1.10;1.00;;;3.50;99.90;;;;;;4988732;28;20872;-59
2021/12/02 03:00:34;;;;;;;1.00;1.00;;;3.50;99.90;;;;;;4990580;28;20405;-59
2021/12/02 03:08:18;;;;;;;1.00;1.00;;;3.60;99.90;;;;;;5002643;28;20522;-59
2021/12/02 03:10:49;;;;;;;1.57;1.13;;;3.60;99.90;;;;;;4991068;28;20458;-59
2021/12/02 03:18:29;;;;;;;0.90;0.90;;;3.50;99.90;;;;;;4978404;28;20514;-60
2021/12/02 03:20:56;;;;;;;1.00;1.00;;;3.50;99.90;;;;;;4986270;28;20849;-59
2021/12/02 03:23:23;;;;;;;1.23;1.13;;;3.50;99.90;;;;;;4981183;28;20185;-59
2021/12/02 03:25:49;;;;;;;1.97;1.30;;;3.50;99.90;;;;;;4986410;28;20473;-58
2021/12/02 03:28:15;;;;;;;1.10;1.00;;;3.50;99.90;;;;;;4991585;28;20874;-57
2021/12/02 03:30:40;;;;;;;1.23;1.10;;;3.50;99.90;;;;;;4990019;28;20184;-62
2021/12/02 03:33:06;;;;;;;2.40;1.00;;;3.50;99.90;;;;;;5012058;28;20189;-61
2021/12/02 03:35:32;;;;;;;5.00;1.30;;;3.50;99.90;;;;;;5011939;28;20180;-61
2021/12/02 03:37:57;;;;;;;1.30;1.20;;;3.40;99.90;;;;;;5010611;28;20218;-60
2021/12/02 03:40:23;;;;;;;1.83;1.20;;;3.40;99.90;;;;;;4996405;28;20243;-60
2021/12/02 03:42:52;;;;;;;1.30;1.20;;;3.30;99.90;;;;;;5004646;28;20173;-63
2021/12/02 03:45:18;;;;;;;1.77;1.30;;;3.30;99.90;;;;;;5016492;28;20443;-62
2021/12/02 03:47:44;;;;;;;1.00;1.00;;;3.30;99.90;;;;;;5008887;28;20462;-60
2021/12/02 03:50:10;;;;;;;1.10;1.00;;;3.30;99.90;;;;;;4987649;28;20486;-56
2021/12/02 03:52:36;;;;;;;2.27;1.40;;;3.30;99.90;;;;;;4996270;28;20423;-59
2021/12/02 03:55:02;;;;;;;1.07;0.97;;;3.20;99.90;;;;;;4985942;28;20191;-56
2021/12/02 03:57:31;;;;;;;2.27;1.60;;;3.20;99.90;;;;;;4982624;28;20913;-58
2021/12/02 03:59:57;;;;;;;2.17;1.57;;;3.20;99.90;;;;;;4984300;28;20434;-60
2021/12/02 04:02:23;;;;;;;1.43;1.13;;;3.10;99.90;;;;;;4987993;28;20436;-58
2021/12/02 04:04:49;;;;;;;1.43;1.10;;;3.10;99.90;;;;;;4985054;28;20440;-59
2021/12/02 04:07:18;;;;;;;1.10;1.00;;;3.10;99.90;;;;;;4976929;28;20432;-59
2021/12/02 04:09:45;;;;;;;1.27;1.20;;;3.00;99.90;;;;;;4977009;28;20526;-58
2021/12/02 04:15:10;;;;;;;3.47;1.53;;;3.00;99.90;;;;;;4988217;28;20434;-59
2021/12/02 04:17:41;;;;;;;1.50;1.40;;;3.00;99.90;;;;;;4982185;28;20547;-59
2021/12/02 04:20:14;;;;;;;1.63;1.53;;;3.00;99.90;;;;;;4987289;28;20432;-59
2021/12/02 04:22:40;;;;;;;1.60;1.40;;;3.00;99.90;;;;;;4988792;28;20453;-58
2021/12/02 04:25:07;;;;;;;1.87;1.60;;;3.00;99.90;;;;;;4979865;28;20451;-58
2021/12/02 04:27:33;;;;;;;1.87;1.50;;;3.00;99.90;;;;;;4985346;28;20490;-57
2021/12/02 04:29:58;;;;;;;1.67;1.40;;;2.90;99.90;;;;;;4985317;28;20527;-60
2021/12/02 04:32:24;;;;;;;1.20;1.13;;;2.90;99.90;;;;;;5001854;28;20270;-63
2021/12/02 04:34:50;;;;;;;2.33;1.60;;;2.90;99.90;;;;;;5005591;28;20181;-63
2021/12/02 04:37:16;;;;;;;1.67;1.40;;;2.90;99.90;;;;;;5005335;28;20195;-59
2021/12/02 04:39:42;;;;;;;1.70;1.50;;;2.90;99.90;;;;;;4991388;28;20448;-59
2021/12/02 04:42:08;;;;;;;1.87;1.70;;;2.80;99.90;;;;;;4992988;28;20263;-58
2021/12/02 04:44:34;;;;;;;4.23;1.87;;;2.80;99.90;;;;;;4996857;28;20245;-58
2021/12/02 04:46:59;;;;;;;2.73;1.50;;;2.80;99.90;;;;;;5006572;28;20640;-57
2021/12/02 04:49:25;;;;;;;2.10;1.27;;;2.80;99.90;;;;;;5002880;28;20207;-61
2021/12/02 04:51:51;;;;;;;2.30;1.77;;;2.80;99.90;;;;;;4996341;28;20216;-57
2021/12/02 04:54:16;;;;;;;3.53;1.77;;;2.80;99.90;;;;;;4988393;28;20675;-60
2021/12/02 04:56:42;;;;;;;2.47;1.90;;;2.80;99.90;;;;;;4986812;28;20188;-60
2021/12/02 04:59:08;;;;;;;1.57;1.47;;;2.80;99.90;;;;;;4988838;28;20246;-61
2021/12/02 05:01:36;;;;;;;1.93;1.73;;;2.80;99.90;;;;;;4987789;28;20177;-61
2021/12/02 05:04:02;;;;;;;1.93;1.40;;;2.90;99.90;;;;;;4987759;28;20216;-60
2021/12/02 05:06:28;;;;;;;2.70;1.63;;;2.90;99.90;;;;;;4993110;28;20492;-58
2021/12/02 05:08:53;;;;;;;1.73;1.63;;;2.90;99.90;;;;;;4984030;28;20239;-57
2021/12/02 05:11:19;;;;;;;1.93;1.57;;;2.90;99.90;;;;;;4981375;28;20270;-59
2021/12/02 05:13:44;;;;;;;1.47;1.37;;;2.90;99.90;;;;;;4996553;28;20607;-56
2021/12/02 05:16:10;;;;;;;1.60;1.50;;;2.90;99.90;;;;;;4982325;28;20173;-57
2021/12/02 05:18:36;;;;;;;2.03;1.90;;;2.90;99.90;;;;;;4988953;28;20233;-59
2021/12/02 05:21:01;;;;;;;1.20;1.10;;;2.90;99.90;;;;;;4988773;28;20185;-58
2021/12/02 05:23:27;;;;;;;1.70;1.60;;;2.90;99.90;;;;;;4989788;28;20181;-56
2021/12/02 05:25:53;;;;;;;3.07;2.13;;;2.90;99.90;;;;;;4988373;28;20635;-58
2021/12/02 05:28:19;;;;;;;4.53;2.43;;;2.90;99.90;;;;;;4987989;28;20602;-58
2021/12/02 05:30:46;;;;;;;2.97;1.70;;;2.80;99.90;;;;;;4993749;28;20292;-57
2021/12/02 05:33:12;;;;;;;4.50;2.00;;;2.80;99.90;;;;;;5001135;28;20232;-59
2021/12/02 05:35:38;;;;;;;2.83;2.13;;;2.80;99.90;;;;;;4987097;28;20427;-58
2021/12/02 05:38:04;;;;;;;3.73;2.50;;;2.80;99.90;;;;;;4990920;28;20533;-58
2021/12/02 05:40:30;;;;;;;3.40;2.67;;;2.70;99.90;;;;;;4991168;28;20180;-56
2021/12/02 05:42:56;;;;;;;3.70;2.50;;;2.70;99.90;;;;;;4981814;28;20560;-59
2021/12/02 05:45:22;;;;;;;2.40;2.20;;;2.70;99.90;;;;;;4980585;28;20917;-56
2021/12/02 05:47:48;;;;;;;4.03;2.20;;;2.70;99.90;;;;;;4984687;28;20219;-59
2021/12/02 05:50:13;;;;;;;5.10;2.70;;;2.70;99.90;;;;;;4984729;28;20623;-58
2021/12/02 05:52:39;;;;;;;3.83;2.40;;;2.70;99.90;;;;;;4982075;28;20613;-59
2021/12/02 05:55:05;;;;;;;5.27;3.03;;;2.70;99.90;;;;;;4984622;28;20169;-58
2021/12/02 05:57:31;;;;;;;2.90;2.60;;;2.70;99.90;;;;;;4981629;28;20331;-59
2021/12/02 05:59:58;;;;;;;3.90;2.43;;;2.70;99.90;;;;;;4983482;28;20531;-56
2021/12/02 06:02:23;;;;;;;4.27;2.60;;;2.70;99.90;;;;;;4983795;28;20188;-58
2021/12/02 06:04:52;;;;;;;5.23;2.30;;;2.70;99.90;;;;;;4995767;28;20419;-58
2021/12/02 06:07:18;;;;;;;5.33;2.93;;;2.70;99.90;;;;;;4999282;28;20181;-58
2021/12/02 06:09:44;;;;;;;3.17;2.43;;;2.70;99.90;;;;;;4997572;28;20456;-59
2021/12/02 06:12:10;;;;;;;2.10;1.83;;;2.70;99.90;;;;;;4985432;28;20805;-59
2021/12/02 06:14:36;;;;;;;2.13;1.97;;;2.70;99.90;;;;;;4988846;28;20427;-58
2021/12/02 06:17:01;;;;;;;3.57;2.63;;;2.70;99.90;;;;;;4984970;28;20780;-57
2021/12/02 06:19:27;;;;;;;3.23;2.60;;;2.70;99.90;;;;;;4986677;28;20187;-58
2021/12/02 06:21:55;;;;;;;2.63;2.30;;;2.80;99.90;;;;;;4989907;28;20673;-57
2021/12/02 06:24:28;;;;;;;4.70;2.20;;;2.70;99.90;;;;;;4993087;28;20601;-58
2021/12/02 06:26:53;;;;;;;3.30;2.00;;;2.80;99.90;;;;;;4983845;28;20444;-57
2021/12/02 06:29:19;;;;;;;2.27;1.90;;;2.80;99.90;;;;;;4986445;28;20813;-56
2021/12/02 06:31:45;;;;;;;3.17;2.40;;;2.80;99.90;;;;;;4989249;28;20184;-55
2021/12/02 06:34:10;;;;;;;4.70;2.50;;;2.80;99.90;;;;;;4990287;28;20615;-58
2021/12/02 06:36:37;;;;;;;3.70;2.90;;;2.80;99.90;;;;;;4993210;28;20653;-58
2021/12/02 06:39:04;;;;;;;4.57;2.80;;;2.80;99.90;;;;;;4988427;28;20197;-57
2021/12/02 06:41:30;;;;;;;3.93;2.97;;;2.70;99.90;;;;;;4985286;28;20417;-57
2021/12/02 06:43:56;;;;;;;4.00;3.00;;;2.70;99.90;;;;;;4987434;28;20471;-56
2021/12/02 06:46:22;;;;;;;4.23;3.27;;;2.70;99.90;;;;;;4986972;28;20416;-58
2021/12/02 06:48:49;;;;;;;3.57;3.13;;;2.70;99.90;;;;;;4987410;28;20672;-57
2021/12/02 06:51:17;;;;;;;5.30;4.30;;;2.70;99.90;;;;;;4987760;28;20474;-58
2021/12/02 06:53:43;;;;;;;6.83;3.70;;;2.70;99.90;;;;;;4984470;28;20999;-58
2021/12/02 06:56:08;;;;;;;6.80;3.53;;;2.70;99.90;;;;;;4988419;28;20513;-58
2021/12/02 06:58:34;;;;;;;10.13;4.50;;;2.70;99.90;;;;;;4989890;28;20639;-57
2021/12/02 07:01:00;;;;;;;8.80;4.10;;;2.70;99.90;;;;;;4983255;28;20178;-58
2021/12/02 07:03:25;;;;;;;7.40;4.50;;;2.70;99.90;;;;;;4990262;28;20170;-58
2021/12/02 07:05:51;;;;;;;4.63;4.00;;;2.70;99.90;;;;;;4989794;28;20644;-60
2021/12/02 07:08:17;;;;;;;8.70;4.10;;;2.70;99.90;;;;;;4979851;28;20194;-58
2021/12/02 07:10:43;;;;;;;6.97;3.13;;;2.70;99.90;;;;;;4979388;28;20190;-57
2021/12/02 07:13:09;;;;;;;5.57;3.90;;;2.70;99.90;;;;;;4988050;28;20838;-57
2021/12/02 07:15:42;;;;;;;4.50;3.17;;;2.70;99.90;;;;;;4988527;28;20417;-57
2021/12/02 07:18:15;;;;;;;9.70;3.50;;;2.70;99.90;;;;;;4989482;28;20462;-57
2021/12/02 07:20:42;;;;;;;5.70;3.37;;;2.70;99.90;;;;;;4985297;28;20946;-57
2021/12/02 07:23:08;;;;;;;5.30;4.17;;;2.70;99.90;;;;;;4988337;28;20446;-57
2021/12/02 07:25:34;;;;;;;6.53;3.10;;;2.70;99.90;;;;;;4986709;28;20427;-58
2021/12/02 07:28:01;;;;;;;6.53;3.47;;;2.70;99.90;;;;;;4988120;28;20459;-58
2021/12/02 07:30:27;;;;;;;7.67;4.70;;;2.70;99.90;;;;;;4986745;28;20550;-58
2021/12/02 07:32:56;;;;;;;5.43;2.73;;;2.70;99.90;;;;;;4988580;28;20492;-58
2021/12/02 07:35:22;;;;;;;3.13;2.80;;;2.70;99.90;;;;;;4989733;28;20561;-57
2021/12/02 07:37:51;;;;;;;4.03;3.00;;;2.80;99.90;;;;;;4989257;28;20452;-57
2021/12/02 07:40:19;;;;;;;5.83;2.80;;;2.80;99.90;;;;;;4984031;28;20533;-57
2021/12/02 07:42:46;;;;;;;5.20;3.57;;;2.80;99.90;;;;;;4977937;28;20476;-58
2021/12/02 07:45:13;;;;;;;4.93;3.00;;;2.70;99.90;;;;;;5009922;28;20471;-59
2021/12/02 07:47:40;;;;;;;8.93;3.40;;;2.80;99.90;;;;;;5002441;28;20510;-57
2021/12/02 07:50:09;;;;;;;4.50;3.30;;;2.80;99.90;;;;;;4989451;28;20471;-57
2021/12/02 07:52:38;;;;;;;5.70;2.60;;;2.80;99.90;;;;;;4984514;28;20423;-57
2021/12/02 07:55:07;;;;;;;5.60;2.70;;;2.80;99.90;;;;;;4996292;28;20419;-64
2021/12/02 07:57:34;;;;;;;4.60;2.60;;;2.90;99.90;;;;;;4978113;28;20483;-58
2021/12/02 08:00:00;;;;;;;11.87;3.23;;;2.90;99.90;;;;;;4987675;28;20408;-57
2021/12/02 08:02:28;;;;;;;4.50;2.70;;;2.90;99.90;;;;;;4985730;28;20438;-57
2021/12/02 08:04:54;;;;;;;7.87;2.67;;;2.90;99.90;;;;;;4985306;28;20440;-58
2021/12/02 08:07:20;;;;;;;6.00;2.77;;;2.90;99.90;;;;;;5009481;28;20412;-56
2021/12/02 08:09:45;;;;;;;3.03;2.60;;;2.90;99.90;;;;;;5002304;28;20198;-57
2021/12/02 08:12:11;;;;;;;7.00;3.10;;;2.90;99.90;;;;;;4982061;28;20228;-56
2021/12/02 08:14:37;;;;;;;6.07;3.23;;;3.00;99.90;;;;;;4981857;28;20169;-57
2021/12/02 08:17:04;;;;;;;5.77;3.03;;;3.00;99.90;;;;;;4984644;28;20162;-57
2021/12/02 08:19:29;;;;;;;5.23;3.60;;;3.00;99.90;;;;;;4976471;28;20223;-59
2021/12/02 08:21:55;;;;;;;3.33;2.40;;;3.00;99.90;;;;;;4988106;28;20440;-57
2021/12/02 08:24:23;;;;;;;3.77;2.60;;;3.10;99.90;;;;;;4973143;28;20203;-57
2021/12/02 08:26:49;;;;;;;2.43;2.20;;;3.00;99.90;;;;;;4986343;28;20417;-57
2021/12/02 08:29:15;;;;;;;3.00;2.27;;;3.10;99.90;;;;;;4987655;28;20975;-57
2021/12/02 08:31:41;;;;;;;5.77;2.30;;;3.10;99.90;;;;;;4981273;28;20532;-58
2021/12/02 08:34:07;;;;;;;5.73;2.60;;;3.10;99.90;;;;;;4988509;28;20870;-57
2021/12/02 08:36:42;;;;;;;5.67;2.47;;;3.10;99.90;;;;;;4988348;28;20173;-56
2021/12/02 08:39:11;;;;;;;2.93;1.80;;;3.10;99.90;;;;;;4983868;28;20262;-57
2021/12/02 08:41:43;;;;;;;4.20;2.90;;;3.10;99.90;;;;;;4987343;28;20427;-58
2021/12/02 08:44:09;;;;;;;6.60;2.50;;;3.10;99.90;;;;;;4985693;28;20431;-57
2021/12/02 08:46:34;;;;;;;2.90;2.00;;;3.10;99.90;;;;;;4984714;28;20446;-57
2021/12/02 08:49:00;;;;;;;5.17;2.60;;;3.10;99.90;;;;;;4980652;28;20931;-57
2021/12/02 08:51:26;;;;;;;6.83;2.73;;;3.10;99.90;;;;;;4986975;28;20262;-56
2021/12/02 08:53:51;;;;;;;5.10;2.70;;;3.10;99.90;;;;;;4988866;28;20368;-57
2021/12/02 08:56:17;;;;;;;3.10;2.50;;;3.20;99.90;;;;;;4982446;28;20187;-58
2021/12/02 08:58:43;;;;;;;4.93;2.13;;;3.30;99.90;;;;;;4999837;28;20201;-57
2021/12/02 09:01:08;;;;;;;2.83;2.23;;;3.30;99.90;;;;;;4973437;28;20212;-57
2021/12/02 09:03:36;;;;;;;4.80;2.50;;;3.30;99.90;;;;;;4975522;28;20211;-56
2021/12/02 09:06:02;;;;;;;4.80;2.20;;;3.40;99.90;;;;;;4997598;28;20217;-57
2021/12/02 09:08:28;;;;;;;4.40;2.63;;;3.40;99.90;;;;;;4981890;28;21006;-56
2021/12/02 09:10:56;;;;;;;6.20;2.97;;;3.30;99.90;;;;;;4985032;28;20258;-57
2021/12/02 09:13:23;;;;;;;3.70;2.43;;;3.30;99.90;;;;;;4984627;28;20520;-57
2021/12/02 09:15:48;;;;;;;4.87;2.97;;;3.30;99.90;;;;;;4986021;28;20930;-56
2021/12/02 09:18:14;;;;;;;4.50;2.57;;;3.30;99.90;;;;;;4986978;28;20483;-57
2021/12/02 09:20:41;;;;;;;4.00;2.80;;;3.30;99.90;;;;;;4980072;28;20177;-57
2021/12/02 09:23:07;;;;;;;5.17;3.00;;;3.30;99.90;;;;;;4984003;28;20188;-57
2021/12/02 09:25:33;;;;;;;4.00;3.03;;;3.30;99.90;;;;;;4988994;28;20507;-56
2021/12/02 09:27:58;;;;;;;10.07;3.03;;;3.40;99.90;;;;;;4990766;28;20184;-59
2021/12/02 09:30:25;;;;;;;5.00;3.00;;;3.50;99.90;;;;;;4989094;28;20471;-58
2021/12/02 09:32:51;;;;;;;3.97;2.17;;;3.70;99.90;;;;;;4991050;28;20334;-57
2021/12/02 09:35:17;;;;;;;4.53;2.77;;;3.90;99.90;;;;;;4991121;28;20497;-56
2021/12/02 09:37:42;;;;;;;3.93;2.30;;;4.00;99.90;;;;;;4986151;28;20197;-57
2021/12/02 09:40:11;;;;;;;4.60;2.10;;;4.10;99.90;;;;;;4994041;28;20248;-58
2021/12/02 09:42:37;;;;;;;3.47;2.30;;;4.20;99.90;;;;;;4991271;28;20205;-57
2021/12/02 09:45:04;;;;;;;2.20;2.00;;;4.20;99.90;;;;;;4986435;28;20515;-56
2021/12/02 09:47:31;;;;;;;2.23;1.97;;;4.20;99.90;;;;;;4991331;28;20465;-57
2021/12/02 09:50:04;;;;;;;2.33;1.57;;;4.30;99.90;;;;;;4990663;28;20986;-56
2021/12/02 09:52:34;;;;;;;5.20;2.30;;;4.40;99.90;;;;;;4987589;28;20413;-57
2021/12/02 09:55:05;;;;;;;2.33;2.10;;;4.60;99.90;;;;;;4979088;28;20452;-57
2021/12/02 09:57:37;;;;;;;2.63;1.63;;;4.70;99.90;;;;;;4985291;28;20452;-57
2021/12/02 10:00:05;;;;;;;4.60;2.40;;;4.90;99.90;;;;;;4983995;28;20521;-57
2021/12/02 10:02:38;;;;;;;2.73;1.60;;;5.00;99.90;;;;;;4982794;28;20519;-57
2021/12/02 10:05:06;;;;;;;2.67;1.67;;;5.10;99.90;;;;;;4989768;28;20931;-57
2021/12/02 10:07:38;;;;;;;4.83;1.97;;;5.10;99.90;;;;;;4988383;28;20444;-57
2021/12/02 10:10:12;;;;;;;3.67;2.17;;;5.10;99.90;;;;;;4985683;28;20990;-58
2021/12/02 10:12:49;;;;;;;4.30;2.23;;;5.00;99.90;;;;;;4988231;28;20547;-56
2021/12/02 10:15:16;;;;;;;2.93;2.03;;;4.90;99.90;;;;;;4990894;28;20785;-58
2021/12/02 10:17:46;;;;;;;4.47;2.20;;;4.80;99.90;;;;;;4982503;28;20470;-57
2021/12/02 10:23:12;;;;;;;7.57;2.20;;;4.70;99.90;;;;;;4971390;28;20498;-57
2021/12/02 10:25:39;;;;;;;4.53;2.27;;;4.60;99.90;;;;;;4982709;28;20416;-58
2021/12/02 10:28:10;;;;;;;5.60;2.37;;;4.60;99.90;;;;;;4984422;28;20539;-59
2021/12/02 10:30:41;;;;;;;8.00;2.40;;;4.60;99.90;;;;;;4986360;28;20483;-58
2021/12/02 10:33:07;;;;;;;3.60;1.80;;;4.60;99.90;;;;;;4991435;28;20759;-58
2021/12/02 10:35:48;;;;;;;15.77;4.10;;;4.60;99.90;;;;;;4982557;28;20927;-58
2021/12/02 10:38:44;;;;;;;7.33;2.73;;;4.60;99.90;;;;;;4985277;28;20195;-57
2021/12/02 10:41:17;;;;;;;3.97;2.33;;;4.60;99.90;;;;;;4985440;28;20430;-58
2021/12/02 10:44:06;;;;;;;4.77;1.80;;;4.60;99.90;;;;;;4988378;28;20420;-58
2021/12/02 10:46:33;;;;;;;2.10;1.77;;;4.50;99.90;;;;;;4990504;28;20420;-58
2021/12/02 10:48:59;;;;;;;2.20;1.57;;;4.50;99.90;;;;;;4990704;28;20444;-58
2021/12/02 10:51:46;;;;;;;1.83;1.40;;;4.60;99.90;;;;;;4986461;28;20468;-58
2021/12/02 10:54:19;;;;;;;2.43;1.47;;;4.50;99.90;;;;;;4982521;28;20421;-57
2021/12/02 10:56:48;;;;;;;4.20;1.50;;;4.50;99.90;;;;;;4983925;28;20803;-58
2021/12/02 10:59:34;;;;;;;3.90;1.70;;;4.50;99.90;;;;;;4979276;28;20441;-58
2021/12/02 11:02:03;;;;;;;2.50;1.87;;;4.60;99.90;;;;;;4977866;28;20474;-58
2021/12/02 11:04:39;;;;;;;2.13;1.40;;;4.60;99.90;;;;;;4982585;28;20864;-58
2021/12/02 11:07:09;;;;;;;1.77;1.50;;;4.70;99.90;;;;;;4987344;28;20431;-59
2021/12/02 11:09:37;;;;;;;1.57;1.40;;;4.70;99.90;;;;;;4985665;28;20905;-58
2021/12/02 11:12:11;;;;;;;1.60;1.50;;;4.70;99.90;;;;;;4988056;28;20421;-62
2021/12/02 11:14:50;;;;;;;1.43;1.27;;;4.70;99.90;;;;;;4983958;28;20424;-57
2021/12/02 11:17:16;;;;;;;2.70;1.33;;;4.70;99.90;;;;;;4986885;28;20879;-58
2021/12/02 11:19:47;;;;;;;3.20;1.50;;;4.70;99.90;;;;;;4989221;28;20482;-56
2021/12/02 11:22:19;;;;;;;1.93;1.47;;;4.80;99.90;;;;;;4987022;28;20472;-57
2021/12/02 11:24:47;;;;;;;4.10;1.77;;;4.80;99.90;;;;;;4987698;28;20440;-56
2021/12/02 11:27:16;;;;;;;1.90;1.50;;;4.80;99.90;;;;;;4984093;28;20424;-57
2021/12/02 11:29:56;;;;;;;2.73;1.33;;;4.80;99.90;;;;;;4987728;28;20957;-57
2021/12/02 11:32:44;;;;;;;1.50;1.40;;;4.80;99.90;;;;;;5000574;23;20533;-59
2021/12/02 11:35:12;;;;;;;2.10;1.30;;;4.80;99.90;;;;;;4969770;28;20504;-59
2021/12/02 11:37:41;;;;;;;1.70;1.30;;;4.70;99.90;;;;;;5001856;28;20491;-61
2021/12/02 11:40:28;;;;;;;1.50;1.27;;;4.70;99.90;;;;;;4985232;28;20440;-58
2021/12/02 11:42:54;;;;;;;1.10;1.00;;;4.70;99.90;;;;;;4987827;28;20555;-60
2021/12/02 11:45:23;;;;;;;2.50;1.20;;;4.70;99.90;;;;;;4989201;28;20427;-60
2021/12/02 11:47:51;;;;;;;1.07;1.03;;;4.60;99.90;;;;;;4989279;28;21001;-60
2021/12/02 11:50:19;;;;;;;1.33;1.17;;;4.60;99.90;;;;;;4986308;28;20880;-61
2021/12/02 11:52:46;;;;;;;2.23;1.77;;;4.60;99.90;;;;;;4984897;28;20686;-62
2021/12/02 11:55:19;;;;;;;1.80;1.70;;;4.70;99.90;;;;;;4988621;28;20443;-62
2021/12/02 11:57:46;;;;;;;4.87;2.10;;;4.70;99.90;;;;;;4989037;28;20430;-61
2021/12/02 12:00:14;;;;;;;1.60;1.50;;;4.70;99.90;;;;;;4982886;28;20947;-61
2021/12/02 12:03:07;;;;;;;2.90;1.40;;;4.70;99.90;;;;;;4987861;28;20530;-62
2021/12/02 12:05:45;;;;;;;1.10;1.00;;;4.70;99.90;;;;;;4988042;28;20428;-62
2021/12/02 12:08:31;;;;;;;3.27;2.33;;;4.70;99.90;;;;;;4990023;28;20424;-62
2021/12/02 12:10:56;;;;;;;5.40;2.97;;;4.70;99.90;;;;;;4986063;28;20553;-62
2021/12/02 12:13:23;;;;;;;4.60;2.40;;;4.70;99.90;;;;;;4989249;28;20526;-62
2021/12/02 12:15:54;;;;;;;2.37;1.77;;;4.70;99.90;;;;;;4988187;28;20191;-61
2021/12/02 12:18:26;;;;;;;2.70;1.83;;;4.70;99.90;;;;;;5002074;28;20438;-63
2021/12/02 12:20:56;;;;;;;3.17;2.17;;;4.70;99.90;;;;;;4988152;28;20420;-63
2021/12/02 12:23:29;;;;;;;2.03;1.70;;;4.60;99.90;;;;;;4981180;28;20432;-55
2021/12/02 12:26:09;;;;;;;1.60;1.50;;;4.50;99.90;;;;;;4985346;28;20431;-57
2021/12/02 12:29:09;;;;;;;1.87;1.40;;;4.50;99.90;;;;;;5003822;28;20451;-61
2021/12/02 12:32:28;;;;;;;1.73;1.50;;;4.40;99.90;;;;;;4989851;28;20832;-62
2021/12/02 12:34:53;;;;;;;2.37;1.50;;;4.50;99.90;;;;;;4979841;28;20475;-59
2021/12/02 12:40:26;;;;;;;2.80;1.40;;;4.40;99.90;;;;;;4991063;28;21225;-60
2021/12/02 12:42:57;;;;;;;1.90;1.20;;;4.10;99.90;;;;;;4989613;28;20448;-59
2021/12/02 12:45:40;;;;;;;1.37;1.27;;;3.80;99.90;;;;;;4988452;28;20423;-59
2021/12/02 12:48:09;;;;;;;1.30;1.20;;;3.60;99.90;;;;;;4984321;28;20417;-58
2021/12/02 12:50:39;;;;;;;1.27;1.23;;;3.40;99.90;;;;;;4986718;28;20523;-59
2021/12/02 12:53:04;;;;;;;2.50;2.10;;;3.20;99.90;;;;;;4990327;28;20441;-59
2021/12/02 12:55:31;;;;;;;3.77;2.77;;;3.10;99.90;;;;;;4987342;28;20514;-59
2021/12/02 12:58:12;;;;;;;1.00;1.00;;;2.90;99.90;;;;;;4986007;28;20186;-59
2021/12/02 13:01:18;;;;;;;4.03;2.60;;;2.80;99.90;;;;;;4984671;28;20431;-58
2021/12/02 13:04:03;;;;;;;1.33;1.23;;;2.70;99.90;;;;;;4996793;28;20452;-58
2021/12/02 13:06:33;;;;;;;1.10;1.00;;;2.60;99.90;;;;;;4994633;28;20434;-58
2021/12/02 13:09:05;;;;;;;1.00;1.00;;;2.60;99.90;;;;;;4997120;28;20758;-60
2021/12/02 13:11:33;;;;;;;0.90;0.90;;;2.60;99.90;;;;;;4989361;28;20470;-58
2021/12/02 13:14:02;;;;;;;0.87;0.87;;;2.60;99.90;;;;;;4994370;28;20422;-56
2021/12/02 13:16:38;;;;;;;1.30;1.20;;;2.50;99.90;;;;;;4992167;28;20430;-61
2021/12/02 13:19:14;;;;;;;1.17;1.10;;;2.40;99.90;;;;;;4994947;28;20809;-60
2021/12/02 13:21:43;;;;;;;1.20;1.10;;;2.30;99.90;;;;;;4983733;28;20458;-60
2021/12/02 13:24:14;;;;;;;1.00;1.00;;;2.30;99.90;;;;;;4990496;28;20540;-61
2021/12/02 13:26:41;;;;;;;1.07;1.07;;;2.20;99.90;;;;;;4987645;28;20420;-59
2021/12/02 13:29:21;;;;;;;0.90;0.90;;;2.20;99.90;;;;;;4989739;28;20488;-56
2021/12/02 13:32:09;;;;;;;8.83;1.17;;;2.30;99.90;;;;;;4989046;28;20612;-59